Time;durP1;ratioP1;P1;durP2;ratioP2;P2;SDS_P1;SDS_P2;PMS_P1;PMS_P2;Temp;Humidity;BMP_temperature;BMP_pressure;BME280_temperature;BME280_humidity;BME280_pressure;Samples;Min_cycle;Max_cycle;Signal;HPM_P1;HPM_P2
2022/08/23 00:01:38;;;;;;;19.15;10.68;;;;;;;;;;10326517;28;20086;-76
2022/08/23 00:06:39;;;;;;;19.08;11.32;;;;;;;;;;10327155;28;20022;-76
2022/08/23 00:11:41;;;;;;;18.42;11.68;;;;;;;;;;10326542;28;20544;-77
2022/08/23 00:16:41;;;;;;;23.65;13.43;;;;;;;;;;10327107;28;20105;-76
2022/08/23 00:21:42;;;;;;;35.28;14.02;;;;;;;;;;10344766;28;20036;-77
2022/08/23 00:26:55;;;;;;;21.75;13.68;;;;;;;;;;10342830;28;20045;-77
2022/08/23 00:31:55;;;;;;;25.27;13.73;;;;;;;;;;10379322;28;20029;-76
2022/08/23 00:36:56;;;;;;;23.47;13.50;;;;;;;;;;10349207;28;20509;-76
2022/08/23 00:47:38;;;;;;;26.77;14.63;;;;;;;;;;10341977;28;20301;-73
2022/08/23 00:47:39;;;;;;;27.80;15.27;;;;;;;;;;10326221;28;20030;-73
2022/08/23 00:52:47;;;;;;;24.25;14.80;;;;;;;;;;10354788;28;20459;-77
2022/08/23 00:57:47;;;;;;;;;;;;;;;;;;10382542;28;20030;-76
2022/08/23 01:02:49;;;;;;;19.85;12.98;;;;;;;;;;10359066;28;20368;-74
2022/08/23 01:07:51;;;;;;;18.63;11.98;;;;;;;;;;10371316;28;20468;-77
2022/08/23 01:12:55;;;;;;;20.02;10.73;;;;;;;;;;10350651;28;20081;-78
2022/08/23 01:18:01;;;;;;;18.15;12.52;;;;;;;;;;10341377;28;20105;-74
2022/08/23 01:23:01;;;;;;;28.02;12.85;;;;;;;;;;10323423;28;20449;-76
2022/08/23 01:28:03;;;;;;;27.85;14.40;;;;;;;;;;10340139;28;20079;-80
2022/08/23 01:33:05;;;;;;;25.48;16.35;;;;;;;;;;10323972;28;20027;-77
2022/08/23 01:38:05;;;;;;;23.95;14.00;;;;;;;;;;10341704;28;20053;-74
2022/08/23 01:43:06;;;;;;;27.80;15.98;;;;;;;;;;10349445;28;20500;-73
2022/08/23 01:48:06;;;;;;;25.45;15.00;;;;;;;;;;10339768;28;20118;-73
2022/08/23 01:53:07;;;;;;;29.83;15.50;;;;;;;;;;10323019;28;20140;-76
2022/08/23 01:58:07;;;;;;;31.30;15.00;;;;;;;;;;10323314;28;20015;-75
2022/08/23 02:03:08;;;;;;;32.60;16.15;;;;;;;;;;10322476;28;20308;-73
2022/08/23 02:13:27;;;;;;;37.08;23.67;;;;;;;;;;10324745;28;20030;-80
2022/08/23 02:18:28;;;;;;;61.03;35.40;;;;;;;;;;10353174;28;20476;-77
2022/08/23 02:23:28;;;;;;;40.75;23.85;;;;;;;;;;10344231;28;20113;-75
2022/08/23 02:28:28;;;;;;;37.83;21.42;;;;;;;;;;10324026;28;20019;-78
2022/08/23 02:33:29;;;;;;;29.65;16.90;;;;;;;;;;10323647;28;20026;-77
2022/08/23 02:38:29;;;;;;;22.83;13.40;;;;;;;;;;10329022;28;20141;-73
2022/08/23 02:43:29;;;;;;;22.10;12.52;;;;;;;;;;10350022;28;20547;-76
2022/08/23 02:48:31;;;;;;;18.43;11.87;;;;;;;;;;10322168;28;20046;-77
2022/08/23 02:53:32;;;;;;;15.70;10.27;;;;;;;;;;10338843;28;20266;-73
2022/08/23 02:58:32;;;;;;;18.08;11.07;;;;;;;;;;10338645;28;20113;-78
2022/08/23 03:03:32;;;;;;;20.02;9.18;;;;;;;;;;10337948;28;20026;-74
2022/08/23 03:08:33;;;;;;;12.45;8.55;;;;;;;;;;10338143;28;20469;-78
2022/08/23 03:13:33;;;;;;;13.80;8.10;;;;;;;;;;10378133;28;20921;-77
2022/08/23 03:18:34;;;;;;;12.20;8.02;;;;;;;;;;10385913;28;20398;-76
2022/08/23 03:23:35;;;;;;;11.57;7.30;;;;;;;;;;10377061;28;20022;-77
2022/08/23 03:28:36;;;;;;;14.88;7.75;;;;;;;;;;10363449;28;20026;-73
2022/08/23 03:33:37;;;;;;;11.40;6.03;;;;;;;;;;10328583;28;20033;-74
2022/08/23 03:38:38;;;;;;;10.77;6.10;;;;;;;;;;10329182;28;20070;-77
2022/08/23 03:43:38;;;;;;;9.32;5.60;;;;;;;;;;10329406;28;20022;-77
2022/08/23 03:48:40;;;;;;;8.83;6.07;;;;;;;;;;10355092;28;20060;-74
2022/08/23 03:53:40;;;;;;;10.38;5.43;;;;;;;;;;10329313;28;20549;-78
2022/08/23 03:58:40;;;;;;;14.68;8.18;;;;;;;;;;10375357;28;20024;-77
2022/08/23 04:03:41;;;;;;;17.55;8.82;;;;;;;;;;10342351;28;20030;-73
2022/08/23 04:08:42;;;;;;;12.63;7.82;;;;;;;;;;10343268;28;20028;-77
2022/08/23 04:13:43;;;;;;;12.40;8.05;;;;;;;;;;10343427;28;20047;-76
2022/08/23 04:18:43;;;;;;;13.15;6.90;;;;;;;;;;10328243;28;20090;-73
2022/08/23 04:23:44;;;;;;;12.68;6.88;;;;;;;;;;10349543;28;20030;-77
2022/08/23 04:28:44;;;;;;;8.40;5.00;;;;;;;;;;10352435;28;20121;-78
2022/08/23 04:33:45;;;;;;;9.00;5.07;;;;;;;;;;10363629;28;20036;-73
2022/08/23 04:38:45;;;;;;;10.30;5.65;;;;;;;;;;10363531;28;20045;-73
2022/08/23 04:43:45;;;;;;;11.95;5.90;;;;;;;;;;10380952;28;20026;-73
2022/08/23 04:48:46;;;;;;;11.32;5.55;;;;;;;;;;10377778;28;20028;-76
2022/08/23 04:53:46;;;;;;;9.35;5.78;;;;;;;;;;10363658;28;20032;-76
2022/08/23 04:58:47;;;;;;;8.32;5.53;;;;;;;;;;10349232;28;20026;-77
2022/08/23 05:03:47;;;;;;;11.73;4.97;;;;;;;;;;10353267;28;20396;-73
2022/08/23 05:08:47;;;;;;;8.13;5.32;;;;;;;;;;10363189;28;20393;-79
2022/08/23 05:13:48;;;;;;;10.52;5.43;;;;;;;;;;10363628;28;20484;-72
2022/08/23 05:18:48;;;;;;;12.20;5.53;;;;;;;;;;10360573;28;20026;-73
2022/08/23 05:23:49;;;;;;;11.75;5.25;;;;;;;;;;10362921;28;20539;-78
2022/08/23 05:28:49;;;;;;;15.20;4.90;;;;;;;;;;10344665;28;20029;-77
2022/08/23 05:33:50;;;;;;;9.70;5.20;;;;;;;;;;10372881;28;20079;-78
2022/08/23 05:38:52;;;;;;;11.05;5.55;;;;;;;;;;10376546;28;20083;-77
2022/08/23 05:43:52;;;;;;;13.50;6.60;;;;;;;;;;10373888;28;20022;-77
2022/08/23 05:48:52;;;;;;;17.43;6.10;;;;;;;;;;10349355;28;20018;-75
2022/08/23 05:53:54;;;;;;;12.70;6.72;;;;;;;;;;10339629;28;20254;-77
2022/08/23 05:58:57;;;;;;;13.60;7.60;;;;;;;;;;10338116;28;20038;-74
2022/08/23 06:04:02;;;;;;;21.42;9.38;;;;;;;;;;10338258;28;20026;-73
2022/08/23 06:09:03;;;;;;;17.00;9.63;;;;;;;;;;10350337;28;20025;-74
2022/08/23 06:14:04;;;;;;;17.08;7.47;;;;;;;;;;10348240;28;20079;-76
2022/08/23 06:19:06;;;;;;;11.80;5.97;;;;;;;;;;10355773;28;20034;-74
2022/08/23 06:24:06;;;;;;;10.48;4.55;;;;;;;;;;10321710;28;20022;-73
2022/08/23 06:29:11;;;;;;;13.17;5.07;;;;;;;;;;10348992;28;20026;-74
2022/08/23 06:34:26;;;;;;;9.38;4.07;;;;;;;;;;10357338;28;20026;-74
2022/08/23 06:39:26;;;;;;;10.15;4.18;;;;;;;;;;10366608;28;20572;-80
2022/08/23 06:44:28;;;;;;;6.53;3.53;;;;;;;;;;10319111;28;20098;-79
2022/08/23 06:49:28;;;;;;;10.30;4.38;;;;;;;;;;10322171;28;20021;-73
2022/08/23 06:54:30;;;;;;;8.38;4.75;;;;;;;;;;10342769;28;20610;-73
2022/08/23 06:59:30;;;;;;;13.02;5.07;;;;;;;;;;10342133;28;20113;-74
2022/08/23 07:04:32;;;;;;;10.48;4.07;;;;;;;;;;10326604;28;20024;-75
2022/08/23 07:09:32;;;;;;;14.27;4.20;;;;;;;;;;10327551;28;20022;-77
2022/08/23 07:14:32;;;;;;;8.27;5.30;;;;;;;;;;10344892;28;20543;-79
2022/08/23 07:19:33;;;;;;;10.37;6.27;;;;;;;;;;10376644;28;20028;-75
2022/08/23 07:24:33;;;;;;;15.18;8.27;;;;;;;;;;10359262;28;20481;-73
2022/08/23 07:29:38;;;;;;;11.80;7.60;;;;;;;;;;10328508;28;20031;-75
2022/08/23 07:34:38;;;;;;;12.35;8.27;;;;;;;;;;10346237;28;20446;-74
2022/08/23 07:39:39;;;;;;;16.83;9.02;;;;;;;;;;10329208;28;20414;-74
2022/08/23 07:44:39;;;;;;;14.73;9.90;;;;;;;;;;10328418;28;20032;-76
2022/08/23 07:49:39;;;;;;;16.25;8.32;;;;;;;;;;10330476;28;20022;-76
2022/08/23 07:54:39;;;;;;;16.25;9.13;;;;;;;;;;10328575;28;20021;-74
2022/08/23 07:59:40;;;;;;;14.05;8.98;;;;;;;;;;10327832;28;20161;-73
2022/08/23 08:04:41;;;;;;;14.65;8.82;;;;;;;;;;10328446;28;20022;-72
2022/08/23 08:09:41;;;;;;;13.90;9.60;;;;;;;;;;10344178;28;20050;-73
2022/08/23 08:14:41;;;;;;;16.42;9.65;;;;;;;;;;10327396;28;20050;-73
2022/08/23 08:19:41;;;;;;;18.00;9.88;;;;;;;;;;10327655;28;20022;-72
2022/08/23 08:24:42;;;;;;;12.52;7.47;;;;;;;;;;10327447;28;20400;-73
2022/08/23 08:29:43;;;;;;;16.48;9.40;;;;;;;;;;10343439;28;20113;-73
2022/08/23 08:34:43;;;;;;;15.63;8.37;;;;;;;;;;10327074;28;20049;-73
2022/08/23 08:39:46;;;;;;;16.38;8.35;;;;;;;;;;10326257;28;20046;-74
2022/08/23 08:44:52;;;;;;;14.10;8.32;;;;;;;;;;10342636;28;20048;-73
2022/08/23 08:49:58;;;;;;;11.82;8.20;;;;;;;;;;10342479;28;20018;-78
2022/08/23 08:55:04;;;;;;;16.30;8.98;;;;;;;;;;10327087;28;20470;-76
2022/08/23 09:00:12;;;;;;;19.35;10.77;;;;;;;;;;10326276;28;20250;-74
2022/08/23 09:05:14;;;;;;;20.13;11.10;;;;;;;;;;10340886;28;20030;-73
2022/08/23 09:10:33;;;;;;;20.25;11.38;;;;;;;;;;10326581;28;20030;-77
2022/08/23 09:15:39;;;;;;;22.65;12.00;;;;;;;;;;10327104;28;20030;-74
2022/08/23 09:20:41;;;;;;;16.33;10.07;;;;;;;;;;10327368;28;20022;-79
2022/08/23 09:25:56;;;;;;;16.13;9.40;;;;;;;;;;10325273;28;20128;-74
2022/08/23 09:30:57;;;;;;;20.08;9.57;;;;;;;;;;10325249;28;20102;-78
2022/08/23 09:36:06;;;;;;;20.65;9.32;;;;;;;;;;10325789;28;20128;-82
2022/08/23 09:41:18;;;;;;;15.90;8.35;;;;;;;;;;10336632;28;20027;-78
2022/08/23 09:46:26;;;;;;;12.82;8.18;;;;;;;;;;10324757;28;20022;-79
2022/08/23 09:51:40;;;;;;;12.88;8.52;;;;;;;;;;10324483;28;20014;-75
2022/08/23 09:56:46;;;;;;;13.48;8.25;;;;;;;;;;10340578;28;20026;-81
2022/08/23 10:01:47;;;;;;;12.10;7.13;;;;;;;;;;10324803;28;20030;-80
2022/08/23 10:06:47;;;;;;;14.02;6.82;;;;;;;;;;10324575;28;20165;-72
2022/08/23 10:11:48;;;;;;;10.80;5.70;;;;;;;;;;10323978;28;20448;-74
2022/08/23 10:17:07;;;;;;;10.70;6.05;;;;;;;;;;10325775;28;20030;-73
2022/08/23 10:22:17;;;;;;;9.68;5.97;;;;;;;;;;10342707;28;20083;-76
2022/08/23 10:33:07;;;;;;;13.52;6.05;;;;;;;;;;10333304;28;20014;-72
2022/08/23 10:38:13;;;;;;;6.88;5.30;;;;;;;;;;10347994;28;20043;-75
2022/08/23 10:43:29;;;;;;;10.45;5.82;;;;;;;;;;10347871;28;20483;-77
2022/08/23 10:48:50;;;;;;;13.63;5.20;;;;;;;;;;10348038;28;20476;-82
2022/08/23 10:54:02;;;;;;;8.02;5.57;;;;;;;;;;10331148;28;20046;-76
2022/08/23 10:59:03;;;;;;;18.13;7.03;;;;;;;;;;10331274;28;20022;-75
2022/08/23 11:04:05;;;;;;;9.93;7.07;;;;;;;;;;10332264;28;20030;-73
2022/08/23 11:09:06;;;;;;;11.77;6.55;;;;;;;;;;10330510;28;20057;-78
2022/08/23 11:14:09;;;;;;;12.65;7.40;;;;;;;;;;10347138;28;20475;-77
2022/08/23 11:19:13;;;;;;;10.93;6.68;;;;;;;;;;10346689;28;20113;-72
2022/08/23 11:24:14;;;;;;;14.07;7.55;;;;;;;;;;10330276;28;20027;-73
2022/08/23 11:29:23;;;;;;;10.27;6.93;;;;;;;;;;10346182;28;20036;-72
2022/08/23 11:34:28;;;;;;;11.73;7.57;;;;;;;;;;10345950;28;20165;-75
2022/08/23 11:39:49;;;;;;;16.08;7.43;;;;;;;;;;10345808;28;20054;-72
2022/08/23 11:44:49;;;;;;;11.43;7.40;;;;;;;;;;10329524;28;20034;-73
2022/08/23 11:49:52;;;;;;;16.03;7.70;;;;;;;;;;10345475;28;20034;-76
2022/08/23 11:55:11;;;;;;;13.82;7.45;;;;;;;;;;10345237;28;20029;-75
2022/08/23 12:00:23;;;;;;;10.60;6.18;;;;;;;;;;10330720;28;20370;-77
2022/08/23 12:05:31;;;;;;;13.35;6.85;;;;;;;;;;10329779;28;20026;-72
2022/08/23 12:10:40;;;;;;;11.10;6.80;;;;;;;;;;10344055;28;20106;-72
2022/08/23 12:15:59;;;;;;;8.45;4.72;;;;;;;;;;10344398;28;20033;-73
2022/08/23 12:21:01;;;;;;;5.47;3.80;;;;;;;;;;10328914;28;20097;-73
2022/08/23 12:26:08;;;;;;;7.10;3.63;;;;;;;;;;10328496;28;20030;-73
2022/08/23 12:31:08;;;;;;;9.13;4.60;;;;;;;;;;10327628;28;20081;-73
2022/08/23 12:36:14;;;;;;;8.10;3.95;;;;;;;;;;10343118;28;20046;-75
2022/08/23 12:41:20;;;;;;;6.60;4.32;;;;;;;;;;10327129;28;20039;-74
2022/08/23 12:46:32;;;;;;;6.68;4.55;;;;;;;;;;10327940;28;20030;-76
2022/08/23 12:51:38;;;;;;;6.05;3.30;;;;;;;;;;10342833;28;20018;-74
2022/08/23 12:56:39;;;;;;;5.82;4.00;;;;;;;;;;10342808;28;20126;-80
2022/08/23 13:01:40;;;;;;;9.20;4.80;;;;;;;;;;10326236;28;20179;-73
2022/08/23 13:06:43;;;;;;;10.48;5.28;;;;;;;;;;10343094;28;20022;-77
2022/08/23 13:11:44;;;;;;;5.88;4.68;;;;;;;;;;10326077;28;20054;-74
2022/08/23 13:16:44;;;;;;;7.63;4.25;;;;;;;;;;10342212;28;20510;-80
2022/08/23 13:21:44;;;;;;;6.22;4.63;;;;;;;;;;10325821;28;20027;-74
2022/08/23 13:26:45;;;;;;;6.43;4.82;;;;;;;;;;10342206;28;20018;-74
2022/08/23 13:31:50;;;;;;;7.13;4.80;;;;;;;;;;10325546;28;20174;-73
2022/08/23 13:36:51;;;;;;;8.15;4.63;;;;;;;;;;10341569;28;20134;-73
2022/08/23 13:41:51;;;;;;;7.55;4.60;;;;;;;;;;10326410;28;20557;-80
2022/08/23 13:46:51;;;;;;;7.22;5.18;;;;;;;;;;10324714;28;20026;-72
2022/08/23 13:51:57;;;;;;;11.82;4.90;;;;;;;;;;10340887;28;20110;-77
2022/08/23 13:57:00;;;;;;;9.35;6.00;;;;;;;;;;10341213;28;20018;-73
2022/08/23 14:02:06;;;;;;;11.32;6.38;;;;;;;;;;10324791;28;20046;-76
2022/08/23 14:07:06;;;;;;;14.45;7.72;;;;;;;;;;10324531;28;20030;-73
2022/08/23 14:12:12;;;;;;;18.00;8.82;;;;;;;;;;10325015;28;20027;-74
2022/08/23 14:17:14;;;;;;;26.25;10.60;;;;;;;;;;10324698;28;20027;-73
2022/08/23 14:22:16;;;;;;;20.77;10.15;;;;;;;;;;10340319;28;20026;-73
2022/08/23 14:27:16;;;;;;;8.73;4.57;;;;;;;;;;10324318;28;20034;-73
2022/08/23 14:32:16;;;;;;;7.18;5.05;;;;;;;;;;10323739;28;20037;-76
2022/08/23 14:37:17;;;;;;;14.35;7.10;;;;;;;;;;10323370;28;20441;-73
2022/08/23 14:42:19;;;;;;;16.08;8.52;;;;;;;;;;10340522;28;20128;-73
2022/08/23 14:47:19;;;;;;;21.67;8.95;;;;;;;;;;10340154;28;20037;-73
2022/08/23 14:52:20;;;;;;;16.02;8.73;;;;;;;;;;10323232;28;20032;-75
2022/08/23 14:57:20;;;;;;;16.73;8.35;;;;;;;;;;10323805;28;20069;-78
2022/08/23 15:02:22;;;;;;;17.87;8.23;;;;;;;;;;10323417;28;20507;-75
2022/08/23 15:07:22;;;;;;;13.13;8.27;;;;;;;;;;10322911;28;20022;-73
2022/08/23 15:12:22;;;;;;;17.85;8.85;;;;;;;;;;10346084;28;20022;-77
2022/08/23 15:17:23;;;;;;;23.23;11.07;;;;;;;;;;10347207;28;20126;-74
2022/08/23 15:22:24;;;;;;;16.35;8.98;;;;;;;;;;10329956;28;20084;-73
2022/08/23 15:27:24;;;;;;;18.63;9.32;;;;;;;;;;10346324;28;20504;-73
2022/08/23 15:32:24;;;;;;;15.90;9.35;;;;;;;;;;10329455;28;20643;-75
2022/08/23 15:37:25;;;;;;;17.67;9.63;;;;;;;;;;10328990;28;20140;-77
2022/08/23 15:42:25;;;;;;;21.67;11.40;;;;;;;;;;10329479;28;20030;-75
2022/08/23 15:47:26;;;;;;;20.25;11.05;;;;;;;;;;10329575;28;20026;-76
2022/08/23 15:52:26;;;;;;;27.05;13.85;;;;;;;;;;10345514;28;20034;-77
2022/08/23 15:57:27;;;;;;;24.42;12.40;;;;;;;;;;10328909;28;20125;-75
2022/08/23 16:02:27;;;;;;;18.40;11.25;;;;;;;;;;10345399;28;20122;-74
2022/08/23 16:07:27;;;;;;;17.00;9.95;;;;;;;;;;10328610;28;20026;-73
2022/08/23 16:12:28;;;;;;;17.45;9.20;;;;;;;;;;10328215;28;20026;-73
2022/08/23 16:17:28;;;;;;;18.95;11.90;;;;;;;;;;10328224;28;20400;-74
2022/08/23 16:22:29;;;;;;;24.77;12.43;;;;;;;;;;10327871;28;20022;-78
2022/08/23 16:27:30;;;;;;;27.85;12.05;;;;;;;;;;10329298;28;20033;-76
2022/08/23 16:32:30;;;;;;;16.70;9.87;;;;;;;;;;10327879;28;20033;-80
2022/08/23 16:37:30;;;;;;;18.05;10.65;;;;;;;;;;10327634;28;20051;-78
2022/08/23 16:42:30;;;;;;;20.40;9.73;;;;;;;;;;10327551;28;20081;-78
2022/08/23 16:47:32;;;;;;;17.40;9.68;;;;;;;;;;10327315;28;20037;-80
2022/08/23 16:52:34;;;;;;;18.85;11.10;;;;;;;;;;10326903;28;20496;-77
2022/08/23 16:57:34;;;;;;;25.38;12.65;;;;;;;;;;10326581;28;20049;-76
2022/08/23 17:02:36;;;;;;;20.42;13.43;;;;;;;;;;10328687;28;20038;-74
2022/08/23 17:07:36;;;;;;;29.42;13.05;;;;;;;;;;10327963;28;20096;-73
2022/08/23 17:12:38;;;;;;;15.35;9.60;;;;;;;;;;10326074;28;20554;-72
2022/08/23 17:17:38;;;;;;;14.88;7.70;;;;;;;;;;10340767;28;20457;-75
2022/08/23 17:22:39;;;;;;;13.38;7.65;;;;;;;;;;10327241;28;20026;-73
2022/08/23 17:27:40;;;;;;;12.88;7.10;;;;;;;;;;10326146;28;20593;-75
2022/08/23 17:32:43;;;;;;;11.02;6.57;;;;;;;;;;10324815;28;20025;-77
2022/08/23 17:37:44;;;;;;;15.63;8.13;;;;;;;;;;10341968;28;20519;-75
2022/08/23 17:42:47;;;;;;;12.57;7.50;;;;;;;;;;10341839;28;20027;-74
2022/08/23 17:47:47;;;;;;;14.20;7.53;;;;;;;;;;10325149;28;20456;-76
2022/08/23 17:52:49;;;;;;;11.50;7.10;;;;;;;;;;10326550;28;20109;-76
2022/08/23 17:57:51;;;;;;;8.70;6.18;;;;;;;;;;10324792;28;20085;-73
2022/08/23 18:02:51;;;;;;;10.00;5.63;;;;;;;;;;10325140;28;20057;-79
2022/08/23 18:07:51;;;;;;;14.67;7.50;;;;;;;;;;10341224;28;20034;-77
2022/08/23 18:12:51;;;;;;;10.27;5.93;;;;;;;;;;10324468;28;20109;-76
2022/08/23 18:17:54;;;;;;;13.93;5.65;;;;;;;;;;10326052;28;20014;-75
2022/08/23 18:22:55;;;;;;;8.82;6.45;;;;;;;;;;10324832;28;20038;-72
2022/08/23 18:28:05;;;;;;;9.23;5.18;;;;;;;;;;10340761;28;20026;-75
2022/08/23 18:33:05;;;;;;;11.25;6.00;;;;;;;;;;10324550;28;20026;-71
2022/08/23 18:38:07;;;;;;;11.43;7.13;;;;;;;;;;10340190;28;20555;-73
2022/08/23 18:43:07;;;;;;;12.90;7.03;;;;;;;;;;10342500;28;20795;-75
2022/08/23 18:48:07;;;;;;;13.35;6.60;;;;;;;;;;10348639;28;20030;-76
2022/08/23 18:53:08;;;;;;;13.13;8.03;;;;;;;;;;10331724;28;20026;-75
2022/08/23 18:58:09;;;;;;;13.68;7.80;;;;;;;;;;10348225;28;20125;-74
2022/08/23 19:03:09;;;;;;;16.63;6.57;;;;;;;;;;10332186;28;20029;-76
2022/08/23 19:08:10;;;;;;;10.95;6.60;;;;;;;;;;10331400;28;20026;-76
2022/08/23 19:13:10;;;;;;;9.85;6.15;;;;;;;;;;10331135;28;20030;-72
2022/08/23 19:18:11;;;;;;;11.73;6.37;;;;;;;;;;10332312;28;20041;-72
2022/08/23 19:23:12;;;;;;;15.25;8.73;;;;;;;;;;10346782;28;20117;-73
2022/08/23 19:28:13;;;;;;;14.57;8.60;;;;;;;;;;10346834;28;20034;-73
2022/08/23 19:33:13;;;;;;;17.13;10.55;;;;;;;;;;10330414;28;20026;-73
2022/08/23 19:38:14;;;;;;;21.25;11.15;;;;;;;;;;10329764;28;20046;-73
2022/08/23 19:43:14;;;;;;;21.50;11.95;;;;;;;;;;10330429;28;20026;-75
2022/08/23 19:48:15;;;;;;;26.83;12.82;;;;;;;;;;10346387;28;20029;-76
2022/08/23 19:53:15;;;;;;;29.27;12.15;;;;;;;;;;10329605;28;20034;-77
2022/08/23 19:58:16;;;;;;;22.00;12.90;;;;;;;;;;10328756;28;20023;-73
2022/08/23 20:03:16;;;;;;;23.23;12.30;;;;;;;;;;10329209;28;20023;-76
2022/08/23 20:08:17;;;;;;;19.25;12.10;;;;;;;;;;10345812;28;20026;-80
2022/08/23 20:13:20;;;;;;;16.52;9.85;;;;;;;;;;10329523;28;20110;-77
2022/08/23 20:18:20;;;;;;;20.20;9.98;;;;;;;;;;10328926;28;20045;-74
2022/08/23 20:28:39;;;;;;;21.10;10.57;;;;;;;;;;10329302;28;20050;-76
2022/08/23 20:33:40;;;;;;;17.77;10.32;;;;;;;;;;10344563;28;20117;-73
2022/08/23 20:38:40;;;;;;;18.60;10.68;;;;;;;;;;10327640;28;20046;-76
2022/08/23 20:43:40;;;;;;;18.97;8.60;;;;;;;;;;10327723;28;20525;-75
2022/08/23 20:48:41;;;;;;;13.43;8.37;;;;;;;;;;10343937;28;20320;-73
2022/08/23 20:53:41;;;;;;;13.53;7.73;;;;;;;;;;10343975;28;20080;-75
2022/08/23 20:58:41;;;;;;;16.90;8.73;;;;;;;;;;10328738;28;20033;-76
2022/08/23 21:03:42;;;;;;;18.35;9.15;;;;;;;;;;10326698;28;20042;-76
2022/08/23 21:08:43;;;;;;;20.60;10.13;;;;;;;;;;10342516;28;20030;-72
2022/08/23 21:13:44;;;;;;;19.35;11.57;;;;;;;;;;10326374;28;20022;-80
2022/08/23 21:18:44;;;;;;;19.75;11.15;;;;;;;;;;10326283;28;20022;-77
2022/08/23 21:23:44;;;;;;;21.85;10.95;;;;;;;;;;10342481;28;20030;-75
2022/08/23 21:28:45;;;;;;;24.47;9.93;;;;;;;;;;10327320;28;20193;-80
2022/08/23 21:33:45;;;;;;;23.63;11.10;;;;;;;;;;10342081;28;20428;-76
2022/08/23 21:38:45;;;;;;;16.92;9.95;;;;;;;;;;10325295;28;20042;-77
2022/08/23 21:43:46;;;;;;;17.47;10.67;;;;;;;;;;10325504;28;20041;-76
2022/08/23 21:48:46;;;;;;;19.00;10.18;;;;;;;;;;10325998;28;20105;-73
2022/08/23 21:53:46;;;;;;;18.67;9.45;;;;;;;;;;10326160;28;20037;-75
2022/08/23 21:58:47;;;;;;;16.97;10.57;;;;;;;;;;10326510;28;20018;-74
2022/08/23 22:03:47;;;;;;;25.38;11.43;;;;;;;;;;10325100;28;20084;-76
2022/08/23 22:08:48;;;;;;;15.70;9.45;;;;;;;;;;10324907;28;20073;-79
2022/08/23 22:13:48;;;;;;;13.55;7.68;;;;;;;;;;10325070;28;20404;-76
2022/08/23 22:18:49;;;;;;;9.52;6.80;;;;;;;;;;10328104;28;20019;-77
2022/08/23 22:23:49;;;;;;;16.27;7.50;;;;;;;;;;10332782;28;20025;-76
2022/08/23 22:28:49;;;;;;;14.35;6.55;;;;;;;;;;10334158;28;20029;-73
2022/08/23 22:33:49;;;;;;;11.10;6.65;;;;;;;;;;10348945;28;20022;-76
2022/08/23 22:38:50;;;;;;;11.85;7.88;;;;;;;;;;10333559;28;20108;-74
2022/08/23 22:43:51;;;;;;;16.08;6.90;;;;;;;;;;10332170;28;20038;-80
2022/08/23 22:48:52;;;;;;;13.32;6.97;;;;;;;;;;10332236;28;20038;-73
2022/08/23 22:53:54;;;;;;;12.05;7.60;;;;;;;;;;10331783;28;20062;-74
2022/08/23 22:58:55;;;;;;;10.68;7.53;;;;;;;;;;10331699;28;20105;-73
2022/08/23 23:03:56;;;;;;;13.20;7.83;;;;;;;;;;10331455;28;20121;-74
2022/08/23 23:08:56;;;;;;;12.93;7.15;;;;;;;;;;10331025;28;20276;-75
2022/08/23 23:13:57;;;;;;;16.50;7.45;;;;;;;;;;10331293;28;20499;-75
2022/08/23 23:24:17;;;;;;;14.02;8.27;;;;;;;;;;10332615;28;20030;-73
2022/08/23 23:29:18;;;;;;;14.60;8.23;;;;;;;;;;10329373;28;20030;-77
2022/08/23 23:34:18;;;;;;;14.32;8.20;;;;;;;;;;10330342;28;20029;-80
2022/08/23 23:39:19;;;;;;;15.02;8.43;;;;;;;;;;10330194;28;20127;-77
2022/08/23 23:44:19;;;;;;;15.02;9.00;;;;;;;;;;10330929;28;20034;-80
2022/08/23 23:49:19;;;;;;;16.83;9.65;;;;;;;;;;10330030;28;20029;-73
2022/08/23 23:54:20;;;;;;;15.88;9.00;;;;;;;;;;10331099;28;20400;-77
2022/08/23 23:59:20;;;;;;;14.05;8.98;;;;;;;;;;10345662;28;20460;-73
